首页
METAR-TAF:

METAR-TAF

机场 :

Greater Rochester International Airport

羅徹斯特, 紐約州, 美国

纬度: 43-07-00N, 经度: 077-40-36W, 海拔: 170米

当前天气观测

该预报发布于53分钟前的20:54 UTC
风速10节,风向西转西南,有时为20节阵风
温度 2°C
湿度 87%
气压 1006 hPa
能見度: 14.5公里
阴天层高于800英尺

METAR: KROC 262054Z 25010G20KT 9SM OVC008 02/00 A2970 RMK AO2 SLP065 60000 T00170000 55007

时间: 16:47 (21:47 UTC)

预报

该预报发布于35分钟前的21:12 UTC
预报有效从26日的 21点(UTC)到 27日的 18点(UTC)
风速12节,风向西转西南,有时为20节阵风
能見度: 10公里
阴天层高于800英尺
从 27日的 0000点(UTC)
风速12节,风向西转西南
能見度: 8.0公里
多云层高于800英尺
小雨, 雪
短暂存在
从 27日的 04点(UTC)到 27日的 07点(UTC)
散云层高于800英尺
阴天层高于1500英尺
从 27日的 0700点(UTC)
风速12节,风向西,有时为22节阵风
能見度: 9.7公里
阴天层高于1500英尺
小阵雪
从 27日的 1100点(UTC)
风速12节,风向西,有时为22节阵风
能見度: 10公里
阴天层高于1200英尺

TAF: KROC 262112Z 2621/2718 25012G20KT P6SM OVC008 FM270000 25012KT 5SM -RASN BKN008 TEMPO 2704/2707 SCT008 OVC015 FM270700 26012G22KT 6SM -SHSN OVC015 FM271100 26012G22KT P6SM OVC012

超过4000个机场的气象观测和天气预报(METAR&TAF报告)。

可查询的气象台以黄色和红色小点在地图上表示。

将鼠标移到小点上方,可查看气象台名称。

然后点击查看天气观测和预报。

如需切换地图:点击带黑十字的绿色按钮放大地图;点击带横线的绿色按钮缩小地图;或者点击绿色箭头查看邻近地区的地图。


METAR-TAF: